sensor_id;sensor_type;location;lat;lon;timestamp;P1;durP1;ratioP1;P2;durP2;ratioP2
75423;SDS011;64005;55.160;36.002;2023-01-24T00:00:40;4.88;;;1.40;;
75423;SDS011;64005;55.160;36.002;2023-01-24T00:03:09;7.50;;;2.15;;
75423;SDS011;64005;55.160;36.002;2023-01-24T00:05:38;6.63;;;2.22;;
75423;SDS011;64005;55.160;36.002;2023-01-24T00:08:05;5.93;;;1.95;;
75423;SDS011;64005;55.160;36.002;2023-01-24T00:10:33;5.43;;;1.42;;
75423;SDS011;64005;55.160;36.002;2023-01-24T00:13:01;6.05;;;2.30;;
75423;SDS011;64005;55.160;36.002;2023-01-24T00:15:29;3.20;;;1.20;;
75423;SDS011;64005;55.160;36.002;2023-01-24T00:17:57;4.90;;;1.63;;
75423;SDS011;64005;55.160;36.002;2023-01-24T00:20:26;7.30;;;2.22;;
75423;SDS011;64005;55.160;36.002;2023-01-24T00:22:54;7.53;;;1.65;;
75423;SDS011;64005;55.160;36.002;2023-01-24T00:25:21;5.15;;;1.45;;
75423;SDS011;64005;55.160;36.002;2023-01-24T00:27:50;6.05;;;1.42;;
75423;SDS011;64005;55.160;36.002;2023-01-24T00:30:17;6.88;;;2.53;;
75423;SDS011;64005;55.160;36.002;2023-01-24T00:32:45;6.20;;;1.80;;
75423;SDS011;64005;55.160;36.002;2023-01-24T00:35:13;5.20;;;2.03;;
75423;SDS011;64005;55.160;36.002;2023-01-24T00:37:42;5.97;;;1.70;;
75423;SDS011;64005;55.160;36.002;2023-01-24T00:40:10;4.22;;;1.33;;
75423;SDS011;64005;55.160;36.002;2023-01-24T00:42:38;4.55;;;1.60;;
75423;SDS011;64005;55.160;36.002;2023-01-24T00:45:06;5.45;;;1.88;;
75423;SDS011;64005;55.160;36.002;2023-01-24T00:47:34;4.00;;;1.60;;
75423;SDS011;64005;55.160;36.002;2023-01-24T00:50:01;4.43;;;2.00;;
75423;SDS011;64005;55.160;36.002;2023-01-24T00:52:29;5.13;;;2.08;;
75423;SDS011;64005;55.160;36.002;2023-01-24T00:54:58;5.90;;;1.92;;
75423;SDS011;64005;55.160;36.002;2023-01-24T00:57:26;4.72;;;1.88;;
75423;SDS011;64005;55.160;36.002;2023-01-24T00:59:53;6.53;;;2.28;;
75423;SDS011;64005;55.160;36.002;2023-01-24T01:02:21;4.32;;;1.98;;
75423;SDS011;64005;55.160;36.002;2023-01-24T01:04:48;5.15;;;1.92;;
75423;SDS011;64005;55.160;36.002;2023-01-24T01:07:16;2.63;;;1.17;;
75423;SDS011;64005;55.160;36.002;2023-01-24T01:09:45;7.45;;;1.98;;
75423;SDS011;64005;55.160;36.002;2023-01-24T01:12:16;6.20;;;2.20;;
75423;SDS011;64005;55.160;36.002;2023-01-24T01:14:43;6.20;;;1.70;;
75423;SDS011;64005;55.160;36.002;2023-01-24T01:17:11;5.10;;;1.95;;
75423;SDS011;64005;55.160;36.002;2023-01-24T01:19:38;5.25;;;1.60;;
75423;SDS011;64005;55.160;36.002;2023-01-24T01:22:06;6.38;;;1.77;;
75423;SDS011;64005;55.160;36.002;2023-01-24T01:24:34;7.63;;;2.33;;
75423;SDS011;64005;55.160;36.002;2023-01-24T01:27:01;5.00;;;1.95;;
75423;SDS011;64005;55.160;36.002;2023-01-24T01:29:31;6.75;;;2.30;;
75423;SDS011;64005;55.160;36.002;2023-01-24T01:32:00;5.25;;;1.90;;
75423;SDS011;64005;55.160;36.002;2023-01-24T01:34:28;6.45;;;1.65;;
75423;SDS011;64005;55.160;36.002;2023-01-24T01:36:55;6.78;;;1.95;;
75423;SDS011;64005;55.160;36.002;2023-01-24T01:39:23;7.13;;;2.40;;
75423;SDS011;64005;55.160;36.002;2023-01-24T01:41:51;8.77;;;2.10;;
75423;SDS011;64005;55.160;36.002;2023-01-24T01:44:20;9.88;;;3.10;;
75423;SDS011;64005;55.160;36.002;2023-01-24T01:47:11;8.98;;;2.17;;
75423;SDS011;64005;55.160;36.002;2023-01-24T01:49:48;6.18;;;1.48;;
75423;SDS011;64005;55.160;36.002;2023-01-24T01:52:20;5.30;;;2.05;;
75423;SDS011;64005;55.160;36.002;2023-01-24T01:54:50;4.90;;;1.25;;
75423;SDS011;64005;55.160;36.002;2023-01-24T01:57:21;6.43;;;2.40;;
75423;SDS011;64005;55.160;36.002;2023-01-24T01:59:54;4.38;;;1.85;;
75423;SDS011;64005;55.160;36.002;2023-01-24T02:02:27;5.78;;;1.67;;
75423;SDS011;64005;55.160;36.002;2023-01-24T02:04:58;5.78;;;2.03;;
75423;SDS011;64005;55.160;36.002;2023-01-24T02:07:31;4.13;;;1.45;;
75423;SDS011;64005;55.160;36.002;2023-01-24T02:10:03;5.88;;;1.85;;
75423;SDS011;64005;55.160;36.002;2023-01-24T02:12:32;7.55;;;2.17;;
75423;SDS011;64005;55.160;36.002;2023-01-24T02:15:06;5.55;;;2.40;;
75423;SDS011;64005;55.160;36.002;2023-01-24T02:17:54;4.95;;;1.52;;
75423;SDS011;64005;55.160;36.002;2023-01-24T02:20:26;5.95;;;2.22;;
75423;SDS011;64005;55.160;36.002;2023-01-24T02:23:09;5.40;;;2.03;;
75423;SDS011;64005;55.160;36.002;2023-01-24T02:25:46;8.80;;;1.83;;
75423;SDS011;64005;55.160;36.002;2023-01-24T02:28:19;7.88;;;2.05;;
75423;SDS011;64005;55.160;36.002;2023-01-24T02:30:47;6.40;;;2.20;;
75423;SDS011;64005;55.160;36.002;2023-01-24T02:33:16;4.35;;;1.77;;
75423;SDS011;64005;55.160;36.002;2023-01-24T02:35:46;5.43;;;2.10;;
75423;SDS011;64005;55.160;36.002;2023-01-24T02:38:15;6.30;;;2.47;;
75423;SDS011;64005;55.160;36.002;2023-01-24T02:40:45;8.32;;;2.30;;
75423;SDS011;64005;55.160;36.002;2023-01-24T02:43:15;5.97;;;2.50;;
75423;SDS011;64005;55.160;36.002;2023-01-24T02:45:47;7.00;;;2.10;;
75423;SDS011;64005;55.160;36.002;2023-01-24T02:48:14;7.70;;;2.22;;
75423;SDS011;64005;55.160;36.002;2023-01-24T02:50:42;6.47;;;1.70;;
75423;SDS011;64005;55.160;36.002;2023-01-24T02:53:27;5.82;;;1.63;;
75423;SDS011;64005;55.160;36.002;2023-01-24T02:55:57;7.40;;;2.20;;
75423;SDS011;64005;55.160;36.002;2023-01-24T02:58:45;6.22;;;2.10;;
75423;SDS011;64005;55.160;36.002;2023-01-24T03:01:12;7.22;;;2.78;;
75423;SDS011;64005;55.160;36.002;2023-01-24T03:03:41;6.63;;;2.25;;
75423;SDS011;64005;55.160;36.002;2023-01-24T03:06:09;4.90;;;2.00;;
75423;SDS011;64005;55.160;36.002;2023-01-24T03:08:37;5.18;;;1.92;;
75423;SDS011;64005;55.160;36.002;2023-01-24T03:11:06;8.63;;;2.35;;
75423;SDS011;64005;55.160;36.002;2023-01-24T03:13:34;6.15;;;2.70;;
75423;SDS011;64005;55.160;36.002;2023-01-24T03:16:21;6.53;;;2.92;;
75423;SDS011;64005;55.160;36.002;2023-01-24T03:19:06;7.30;;;2.58;;
75423;SDS011;64005;55.160;36.002;2023-01-24T03:21:51;4.15;;;1.50;;
75423;SDS011;64005;55.160;36.002;2023-01-24T03:24:36;8.00;;;2.40;;
75423;SDS011;64005;55.160;36.002;2023-01-24T03:27:21;6.07;;;2.17;;
75423;SDS011;64005;55.160;36.002;2023-01-24T03:30:07;14.95;;;3.50;;
75423;SDS011;64005;55.160;36.002;2023-01-24T03:32:59;7.15;;;2.22;;
75423;SDS011;64005;55.160;36.002;2023-01-24T03:35:44;5.90;;;1.85;;
75423;SDS011;64005;55.160;36.002;2023-01-24T03:38:19;8.50;;;2.30;;
75423;SDS011;64005;55.160;36.002;2023-01-24T03:41:07;9.05;;;2.25;;
75423;SDS011;64005;55.160;36.002;2023-01-24T03:43:34;7.85;;;2.88;;
75423;SDS011;64005;55.160;36.002;2023-01-24T03:46:02;8.25;;;2.58;;
75423;SDS011;64005;55.160;36.002;2023-01-24T03:48:31;7.00;;;2.55;;
75423;SDS011;64005;55.160;36.002;2023-01-24T03:51:01;9.98;;;2.97;;
75423;SDS011;64005;55.160;36.002;2023-01-24T03:53:47;7.05;;;3.08;;
75423;SDS011;64005;55.160;36.002;2023-01-24T03:56:14;5.95;;;2.63;;
75423;SDS011;64005;55.160;36.002;2023-01-24T03:58:42;9.25;;;2.78;;
75423;SDS011;64005;55.160;36.002;2023-01-24T04:01:09;8.75;;;3.08;;
75423;SDS011;64005;55.160;36.002;2023-01-24T04:03:38;9.40;;;3.15;;
75423;SDS011;64005;55.160;36.002;2023-01-24T04:06:06;9.13;;;2.83;;
75423;SDS011;64005;55.160;36.002;2023-01-24T04:08:33;10.95;;;2.88;;
75423;SDS011;64005;55.160;36.002;2023-01-24T04:11:01;6.40;;;2.53;;
75423;SDS011;64005;55.160;36.002;2023-01-24T04:13:28;7.00;;;2.95;;
75423;SDS011;64005;55.160;36.002;2023-01-24T04:15:56;7.82;;;2.75;;
75423;SDS011;64005;55.160;36.002;2023-01-24T04:18:23;5.93;;;2.30;;
75423;SDS011;64005;55.160;36.002;2023-01-24T04:20:52;8.60;;;3.03;;
75423;SDS011;64005;55.160;36.002;2023-01-24T04:23:20;9.07;;;1.83;;
75423;SDS011;64005;55.160;36.002;2023-01-24T04:25:50;7.43;;;2.55;;
75423;SDS011;64005;55.160;36.002;2023-01-24T04:28:22;14.40;;;4.18;;
75423;SDS011;64005;55.160;36.002;2023-01-24T04:30:55;6.43;;;2.70;;
75423;SDS011;64005;55.160;36.002;2023-01-24T04:33:23;11.13;;;2.90;;
75423;SDS011;64005;55.160;36.002;2023-01-24T04:35:50;9.65;;;2.78;;
75423;SDS011;64005;55.160;36.002;2023-01-24T04:38:22;11.15;;;3.50;;
75423;SDS011;64005;55.160;36.002;2023-01-24T04:40:56;8.27;;;2.90;;
75423;SDS011;64005;55.160;36.002;2023-01-24T04:43:25;10.20;;;3.22;;
75423;SDS011;64005;55.160;36.002;2023-01-24T04:45:54;7.95;;;2.40;;
75423;SDS011;64005;55.160;36.002;2023-01-24T04:48:22;7.97;;;2.72;;
75423;SDS011;64005;55.160;36.002;2023-01-24T04:50:50;8.40;;;2.45;;
75423;SDS011;64005;55.160;36.002;2023-01-24T04:53:19;13.23;;;4.00;;
75423;SDS011;64005;55.160;36.002;2023-01-24T04:55:46;9.07;;;2.90;;
75423;SDS011;64005;55.160;36.002;2023-01-24T04:58:14;11.88;;;2.70;;
75423;SDS011;64005;55.160;36.002;2023-01-24T05:00:41;10.65;;;2.95;;
75423;SDS011;64005;55.160;36.002;2023-01-24T05:03:09;12.05;;;3.10;;
75423;SDS011;64005;55.160;36.002;2023-01-24T05:05:36;6.90;;;2.50;;
75423;SDS011;64005;55.160;36.002;2023-01-24T05:08:04;13.82;;;4.05;;
75423;SDS011;64005;55.160;36.002;2023-01-24T05:10:33;8.07;;;2.85;;
75423;SDS011;64005;55.160;36.002;2023-01-24T05:13:00;9.90;;;3.03;;
75423;SDS011;64005;55.160;36.002;2023-01-24T05:15:28;8.95;;;3.10;;
75423;SDS011;64005;55.160;36.002;2023-01-24T05:17:55;10.88;;;2.92;;
75423;SDS011;64005;55.160;36.002;2023-01-24T05:20:22;8.77;;;2.72;;
75423;SDS011;64005;55.160;36.002;2023-01-24T05:22:50;10.93;;;2.90;;
75423;SDS011;64005;55.160;36.002;2023-01-24T05:25:17;5.63;;;2.03;;
75423;SDS011;64005;55.160;36.002;2023-01-24T05:27:46;6.15;;;1.90;;
75423;SDS011;64005;55.160;36.002;2023-01-24T05:30:14;9.13;;;2.97;;
75423;SDS011;64005;55.160;36.002;2023-01-24T05:32:42;7.80;;;2.92;;
75423;SDS011;64005;55.160;36.002;2023-01-24T05:35:09;8.32;;;3.30;;
75423;SDS011;64005;55.160;36.002;2023-01-24T05:37:37;9.85;;;3.10;;
75423;SDS011;64005;55.160;36.002;2023-01-24T05:40:05;8.55;;;2.72;;
75423;SDS011;64005;55.160;36.002;2023-01-24T05:42:34;7.68;;;2.58;;
75423;SDS011;64005;55.160;36.002;2023-01-24T05:45:04;9.00;;;2.60;;
75423;SDS011;64005;55.160;36.002;2023-01-24T05:47:32;8.40;;;2.70;;
75423;SDS011;64005;55.160;36.002;2023-01-24T05:50:01;7.57;;;3.15;;
75423;SDS011;64005;55.160;36.002;2023-01-24T05:52:29;5.97;;;2.05;;
75423;SDS011;64005;55.160;36.002;2023-01-24T05:54:56;11.05;;;3.03;;
75423;SDS011;64005;55.160;36.002;2023-01-24T05:57:24;10.45;;;3.20;;
75423;SDS011;64005;55.160;36.002;2023-01-24T05:59:51;7.03;;;2.83;;
75423;SDS011;64005;55.160;36.002;2023-01-24T06:02:20;11.82;;;3.25;;
75423;SDS011;64005;55.160;36.002;2023-01-24T06:04:48;12.20;;;3.58;;
75423;SDS011;64005;55.160;36.002;2023-01-24T06:07:15;9.27;;;4.43;;
75423;SDS011;64005;55.160;36.002;2023-01-24T06:09:43;11.00;;;3.72;;
75423;SDS011;64005;55.160;36.002;2023-01-24T06:12:10;9.18;;;3.08;;
75423;SDS011;64005;55.160;36.002;2023-01-24T06:14:38;8.70;;;3.38;;
75423;SDS011;64005;55.160;36.002;2023-01-24T06:17:05;9.55;;;3.28;;
75423;SDS011;64005;55.160;36.002;2023-01-24T06:19:35;12.88;;;4.28;;
75423;SDS011;64005;55.160;36.002;2023-01-24T06:22:05;11.93;;;3.75;;
75423;SDS011;64005;55.160;36.002;2023-01-24T06:24:44;12.68;;;3.10;;
75423;SDS011;64005;55.160;36.002;2023-01-24T06:27:12;12.35;;;4.22;;
75423;SDS011;64005;55.160;36.002;2023-01-24T06:29:41;11.35;;;3.67;;
75423;SDS011;64005;55.160;36.002;2023-01-24T06:32:12;10.32;;;3.25;;
75423;SDS011;64005;55.160;36.002;2023-01-24T06:35:00;12.65;;;3.30;;
75423;SDS011;64005;55.160;36.002;2023-01-24T06:37:44;10.93;;;3.17;;
75423;SDS011;64005;55.160;36.002;2023-01-24T06:42:42;9.75;;;3.30;;
75423;SDS011;64005;55.160;36.002;2023-01-24T06:45:10;8.55;;;2.10;;
75423;SDS011;64005;55.160;36.002;2023-01-24T06:47:38;8.27;;;2.92;;
75423;SDS011;64005;55.160;36.002;2023-01-24T06:50:10;10.63;;;3.33;;
75423;SDS011;64005;55.160;36.002;2023-01-24T06:52:40;8.68;;;2.65;;
75423;SDS011;64005;55.160;36.002;2023-01-24T06:55:08;11.45;;;3.78;;
75423;SDS011;64005;55.160;36.002;2023-01-24T06:57:35;13.55;;;3.60;;
75423;SDS011;64005;55.160;36.002;2023-01-24T07:00:03;6.90;;;2.97;;
75423;SDS011;64005;55.160;36.002;2023-01-24T07:02:32;10.82;;;3.17;;
75423;SDS011;64005;55.160;36.002;2023-01-24T07:04:59;10.18;;;2.85;;
75423;SDS011;64005;55.160;36.002;2023-01-24T07:07:30;10.95;;;3.25;;
75423;SDS011;64005;55.160;36.002;2023-01-24T07:09:58;8.93;;;3.05;;
75423;SDS011;64005;55.160;36.002;2023-01-24T07:12:25;7.15;;;2.50;;
75423;SDS011;64005;55.160;36.002;2023-01-24T07:14:53;7.25;;;2.92;;
75423;SDS011;64005;55.160;36.002;2023-01-24T07:17:21;12.05;;;2.85;;
75423;SDS011;64005;55.160;36.002;2023-01-24T07:19:49;10.32;;;2.70;;
75423;SDS011;64005;55.160;36.002;2023-01-24T07:22:17;11.43;;;2.58;;
75423;SDS011;64005;55.160;36.002;2023-01-24T07:24:47;7.35;;;2.78;;
75423;SDS011;64005;55.160;36.002;2023-01-24T07:27:16;9.65;;;2.83;;
75423;SDS011;64005;55.160;36.002;2023-01-24T07:29:44;7.82;;;2.55;;
75423;SDS011;64005;55.160;36.002;2023-01-24T07:32:12;8.05;;;2.83;;
75423;SDS011;64005;55.160;36.002;2023-01-24T07:34:39;8.63;;;2.75;;
75423;SDS011;64005;55.160;36.002;2023-01-24T07:37:07;8.90;;;2.80;;
75423;SDS011;64005;55.160;36.002;2023-01-24T07:39:34;8.68;;;3.13;;
75423;SDS011;64005;55.160;36.002;2023-01-24T07:42:03;12.25;;;3.67;;
75423;SDS011;64005;55.160;36.002;2023-01-24T07:44:31;6.75;;;2.67;;
75423;SDS011;64005;55.160;36.002;2023-01-24T07:46:58;9.98;;;3.35;;
75423;SDS011;64005;55.160;36.002;2023-01-24T07:49:26;8.70;;;2.60;;
75423;SDS011;64005;55.160;36.002;2023-01-24T07:51:54;10.48;;;3.20;;
75423;SDS011;64005;55.160;36.002;2023-01-24T07:54:21;8.50;;;2.70;;
75423;SDS011;64005;55.160;36.002;2023-01-24T07:56:49;7.97;;;2.28;;
75423;SDS011;64005;55.160;36.002;2023-01-24T07:59:18;10.32;;;2.40;;
75423;SDS011;64005;55.160;36.002;2023-01-24T08:01:46;9.05;;;2.88;;
75423;SDS011;64005;55.160;36.002;2023-01-24T08:04:14;9.30;;;3.28;;
75423;SDS011;64005;55.160;36.002;2023-01-24T08:06:41;8.02;;;2.45;;
75423;SDS011;64005;55.160;36.002;2023-01-24T08:09:29;9.35;;;2.67;;
75423;SDS011;64005;55.160;36.002;2023-01-24T08:11:56;7.10;;;2.97;;
75423;SDS011;64005;55.160;36.002;2023-01-24T08:14:25;7.68;;;2.30;;
75423;SDS011;64005;55.160;36.002;2023-01-24T08:16:53;5.80;;;2.10;;
75423;SDS011;64005;55.160;36.002;2023-01-24T08:19:20;8.65;;;2.65;;
75423;SDS011;64005;55.160;36.002;2023-01-24T08:21:48;10.40;;;2.80;;
75423;SDS011;64005;55.160;36.002;2023-01-24T08:24:16;10.27;;;3.20;;
75423;SDS011;64005;55.160;36.002;2023-01-24T08:26:44;11.77;;;2.88;;
75423;SDS011;64005;55.160;36.002;2023-01-24T08:29:11;8.40;;;2.70;;
75423;SDS011;64005;55.160;36.002;2023-01-24T08:31:40;7.18;;;3.00;;
75423;SDS011;64005;55.160;36.002;2023-01-24T08:34:08;10.27;;;3.45;;
75423;SDS011;64005;55.160;36.002;2023-01-24T08:36:36;7.32;;;2.33;;
75423;SDS011;64005;55.160;36.002;2023-01-24T08:39:04;7.22;;;2.72;;
75423;SDS011;64005;55.160;36.002;2023-01-24T08:41:31;7.45;;;2.63;;
75423;SDS011;64005;55.160;36.002;2023-01-24T08:43:59;3.13;;;1.15;;
75423;SDS011;64005;55.160;36.002;2023-01-24T08:46:28;10.35;;;3.13;;
75423;SDS011;64005;55.160;36.002;2023-01-24T08:48:58;7.30;;;2.58;;
75423;SDS011;64005;55.160;36.002;2023-01-24T08:51:25;10.70;;;3.05;;
75423;SDS011;64005;55.160;36.002;2023-01-24T08:53:53;9.00;;;3.00;;
75423;SDS011;64005;55.160;36.002;2023-01-24T08:56:21;8.52;;;2.92;;
75423;SDS011;64005;55.160;36.002;2023-01-24T08:58:48;8.07;;;2.40;;
75423;SDS011;64005;55.160;36.002;2023-01-24T09:01:16;8.95;;;3.20;;
75423;SDS011;64005;55.160;36.002;2023-01-24T09:03:43;11.60;;;2.90;;
75423;SDS011;64005;55.160;36.002;2023-01-24T09:06:12;6.95;;;2.72;;
75423;SDS011;64005;55.160;36.002;2023-01-24T09:08:39;9.38;;;3.38;;
75423;SDS011;64005;55.160;36.002;2023-01-24T09:11:08;8.93;;;2.97;;
75423;SDS011;64005;55.160;36.002;2023-01-24T09:13:36;7.20;;;2.50;;
75423;SDS011;64005;55.160;36.002;2023-01-24T09:16:03;8.75;;;3.30;;
75423;SDS011;64005;55.160;36.002;2023-01-24T09:18:31;11.32;;;2.80;;
75423;SDS011;64005;55.160;36.002;2023-01-24T09:21:01;9.00;;;2.88;;
75423;SDS011;64005;55.160;36.002;2023-01-24T09:23:31;8.35;;;3.35;;
75423;SDS011;64005;55.160;36.002;2023-01-24T09:25:58;8.15;;;2.35;;
75423;SDS011;64005;55.160;36.002;2023-01-24T09:28:26;7.13;;;3.13;;
75423;SDS011;64005;55.160;36.002;2023-01-24T09:30:53;6.97;;;3.55;;
75423;SDS011;64005;55.160;36.002;2023-01-24T09:33:21;6.63;;;3.08;;
75423;SDS011;64005;55.160;36.002;2023-01-24T09:35:51;8.90;;;2.83;;
75423;SDS011;64005;55.160;36.002;2023-01-24T09:41:27;10.13;;;2.92;;
75423;SDS011;64005;55.160;36.002;2023-01-24T09:44:08;9.63;;;2.92;;
75423;SDS011;64005;55.160;36.002;2023-01-24T09:46:43;6.40;;;2.75;;
75423;SDS011;64005;55.160;36.002;2023-01-24T09:49:15;9.43;;;3.17;;
75423;SDS011;64005;55.160;36.002;2023-01-24T09:51:57;9.00;;;3.33;;
75423;SDS011;64005;55.160;36.002;2023-01-24T09:54:29;8.48;;;3.00;;
75423;SDS011;64005;55.160;36.002;2023-01-24T09:57:06;9.60;;;3.67;;
75423;SDS011;64005;55.160;36.002;2023-01-24T09:59:40;8.00;;;3.28;;
75423;SDS011;64005;55.160;36.002;2023-01-24T10:02:15;7.63;;;2.80;;
75423;SDS011;64005;55.160;36.002;2023-01-24T10:04:44;7.85;;;2.90;;
75423;SDS011;64005;55.160;36.002;2023-01-24T10:07:33;9.75;;;3.95;;
75423;SDS011;64005;55.160;36.002;2023-01-24T10:10:28;8.10;;;3.03;;
75423;SDS011;64005;55.160;36.002;2023-01-24T10:13:19;10.07;;;3.53;;
75423;SDS011;64005;55.160;36.002;2023-01-24T10:16:01;9.50;;;3.58;;
75423;SDS011;64005;55.160;36.002;2023-01-24T10:18:48;9.18;;;2.63;;
75423;SDS011;64005;55.160;36.002;2023-01-24T10:21:27;10.93;;;3.65;;
75423;SDS011;64005;55.160;36.002;2023-01-24T10:24:14;9.93;;;3.42;;
75423;SDS011;64005;55.160;36.002;2023-01-24T10:26:47;11.48;;;3.30;;
75423;SDS011;64005;55.160;36.002;2023-01-24T10:29:18;10.25;;;3.90;;
75423;SDS011;64005;55.160;36.002;2023-01-24T10:31:50;11.88;;;4.18;;
75423;SDS011;64005;55.160;36.002;2023-01-24T10:34:26;7.32;;;3.40;;
75423;SDS011;64005;55.160;36.002;2023-01-24T10:37:00;10.05;;;3.80;;
75423;SDS011;64005;55.160;36.002;2023-01-24T10:39:32;14.73;;;4.10;;
75423;SDS011;64005;55.160;36.002;2023-01-24T10:42:00;10.55;;;3.47;;
75423;SDS011;64005;55.160;36.002;2023-01-24T10:44:31;10.10;;;4.07;;
75423;SDS011;64005;55.160;36.002;2023-01-24T10:47:13;11.35;;;3.90;;
75423;SDS011;64005;55.160;36.002;2023-01-24T10:49:59;14.50;;;4.50;;
75423;SDS011;64005;55.160;36.002;2023-01-24T10:52:29;9.90;;;4.18;;
75423;SDS011;64005;55.160;36.002;2023-01-24T10:54:59;14.02;;;3.95;;
75423;SDS011;64005;55.160;36.002;2023-01-24T10:57:32;13.52;;;3.85;;
75423;SDS011;64005;55.160;36.002;2023-01-24T11:00:15;7.38;;;3.28;;
75423;SDS011;64005;55.160;36.002;2023-01-24T11:02:53;11.55;;;4.13;;
75423;SDS011;64005;55.160;36.002;2023-01-24T11:05:21;9.20;;;3.90;;
75423;SDS011;64005;55.160;36.002;2023-01-24T11:07:51;10.00;;;4.10;;
75423;SDS011;64005;55.160;36.002;2023-01-24T11:10:24;10.15;;;3.63;;
75423;SDS011;64005;55.160;36.002;2023-01-24T11:12:55;9.70;;;4.22;;
75423;SDS011;64005;55.160;36.002;2023-01-24T11:15:26;16.80;;;4.45;;
75423;SDS011;64005;55.160;36.002;2023-01-24T11:17:56;12.18;;;4.03;;
75423;SDS011;64005;55.160;36.002;2023-01-24T11:20:29;10.45;;;4.18;;
75423;SDS011;64005;55.160;36.002;2023-01-24T11:23:01;11.55;;;4.53;;
75423;SDS011;64005;55.160;36.002;2023-01-24T11:25:31;10.60;;;3.05;;
75423;SDS011;64005;55.160;36.002;2023-01-24T11:27:58;12.48;;;4.55;;
75423;SDS011;64005;55.160;36.002;2023-01-24T11:30:27;12.13;;;3.67;;
75423;SDS011;64005;55.160;36.002;2023-01-24T11:33:23;12.13;;;4.28;;
75423;SDS011;64005;55.160;36.002;2023-01-24T11:36:01;13.65;;;4.22;;
75423;SDS011;64005;55.160;36.002;2023-01-24T11:38:34;14.50;;;4.18;;
75423;SDS011;64005;55.160;36.002;2023-01-24T11:41:09;9.70;;;3.40;;
75423;SDS011;64005;55.160;36.002;2023-01-24T11:43:48;12.23;;;4.28;;
75423;SDS011;64005;55.160;36.002;2023-01-24T11:46:39;13.38;;;4.22;;
75423;SDS011;64005;55.160;36.002;2023-01-24T11:49:23;9.10;;;3.45;;
75423;SDS011;64005;55.160;36.002;2023-01-24T11:52:14;11.98;;;3.83;;
75423;SDS011;64005;55.160;36.002;2023-01-24T11:55:07;11.00;;;4.22;;
75423;SDS011;64005;55.160;36.002;2023-01-24T11:57:42;9.70;;;3.83;;
75423;SDS011;64005;55.160;36.002;2023-01-24T12:00:21;12.27;;;4.50;;
75423;SDS011;64005;55.160;36.002;2023-01-24T12:03:04;8.77;;;2.67;;
75423;SDS011;64005;55.160;36.002;2023-01-24T12:05:51;10.25;;;3.67;;
75423;SDS011;64005;55.160;36.002;2023-01-24T12:11:09;10.93;;;3.67;;
75423;SDS011;64005;55.160;36.002;2023-01-24T12:13:44;9.35;;;3.30;;
75423;SDS011;64005;55.160;36.002;2023-01-24T12:16:18;10.95;;;3.20;;
75423;SDS011;64005;55.160;36.002;2023-01-24T12:19:04;11.23;;;4.05;;
75423;SDS011;64005;55.160;36.002;2023-01-24T12:21:48;10.80;;;4.55;;
75423;SDS011;64005;55.160;36.002;2023-01-24T12:24:19;11.60;;;3.60;;
75423;SDS011;64005;55.160;36.002;2023-01-24T12:26:51;11.15;;;4.80;;
75423;SDS011;64005;55.160;36.002;2023-01-24T12:29:24;8.77;;;3.42;;
75423;SDS011;64005;55.160;36.002;2023-01-24T12:31:57;10.00;;;4.60;;
75423;SDS011;64005;55.160;36.002;2023-01-24T12:34:37;9.98;;;4.13;;
75423;SDS011;64005;55.160;36.002;2023-01-24T12:37:12;14.15;;;3.85;;
75423;SDS011;64005;55.160;36.002;2023-01-24T12:39:51;11.20;;;3.90;;
75423;SDS011;64005;55.160;36.002;2023-01-24T12:42:38;8.02;;;3.33;;
75423;SDS011;64005;55.160;36.002;2023-01-24T12:45:14;12.80;;;3.53;;
75423;SDS011;64005;55.160;36.002;2023-01-24T12:47:47;10.98;;;3.28;;
75423;SDS011;64005;55.160;36.002;2023-01-24T12:50:24;11.52;;;3.35;;
75423;SDS011;64005;55.160;36.002;2023-01-24T12:53:03;8.98;;;2.92;;
75423;SDS011;64005;55.160;36.002;2023-01-24T12:55:39;10.57;;;3.67;;
75423;SDS011;64005;55.160;36.002;2023-01-24T12:58:15;12.52;;;3.75;;
75423;SDS011;64005;55.160;36.002;2023-01-24T13:00:49;9.60;;;3.63;;
75423;SDS011;64005;55.160;36.002;2023-01-24T13:03:37;11.20;;;4.10;;
75423;SDS011;64005;55.160;36.002;2023-01-24T13:06:24;8.93;;;3.53;;
75423;SDS011;64005;55.160;36.002;2023-01-24T13:09:04;10.75;;;3.95;;
75423;SDS011;64005;55.160;36.002;2023-01-24T13:11:42;10.45;;;3.60;;
75423;SDS011;64005;55.160;36.002;2023-01-24T13:14:14;7.18;;;3.42;;
75423;SDS011;64005;55.160;36.002;2023-01-24T13:19:58;9.93;;;3.38;;
75423;SDS011;64005;55.160;36.002;2023-01-24T13:22:50;11.40;;;3.65;;
75423;SDS011;64005;55.160;36.002;2023-01-24T13:25:52;8.60;;;3.63;;
75423;SDS011;64005;55.160;36.002;2023-01-24T13:28:35;9.75;;;3.10;;
75423;SDS011;64005;55.160;36.002;2023-01-24T13:31:19;11.32;;;3.17;;
75423;SDS011;64005;55.160;36.002;2023-01-24T13:33:55;8.35;;;3.38;;
75423;SDS011;64005;55.160;36.002;2023-01-24T13:36:28;9.32;;;3.50;;
75423;SDS011;64005;55.160;36.002;2023-01-24T13:39:01;7.82;;;3.03;;
75423;SDS011;64005;55.160;36.002;2023-01-24T13:41:33;12.75;;;4.50;;
75423;SDS011;64005;55.160;36.002;2023-01-24T13:44:03;12.75;;;5.85;;
75423;SDS011;64005;55.160;36.002;2023-01-24T13:47:00;14.75;;;6.57;;
75423;SDS011;64005;55.160;36.002;2023-01-24T13:49:35;10.80;;;4.40;;
75423;SDS011;64005;55.160;36.002;2023-01-24T13:58:25;11.10;;;3.20;;
75423;SDS011;64005;55.160;36.002;2023-01-24T14:00:54;7.78;;;2.90;;
75423;SDS011;64005;55.160;36.002;2023-01-24T14:03:27;9.80;;;3.38;;
75423;SDS011;64005;55.160;36.002;2023-01-24T14:06:04;10.05;;;3.85;;
75423;SDS011;64005;55.160;36.002;2023-01-24T14:08:41;9.57;;;3.53;;
75423;SDS011;64005;55.160;36.002;2023-01-24T14:11:23;11.95;;;4.15;;
75423;SDS011;64005;55.160;36.002;2023-01-24T14:14:00;8.18;;;3.47;;
75423;SDS011;64005;55.160;36.002;2023-01-24T14:17:04;9.93;;;4.38;;
75423;SDS011;64005;55.160;36.002;2023-01-24T14:19:52;8.52;;;3.05;;
75423;SDS011;64005;55.160;36.002;2023-01-24T14:28:18;10.30;;;3.15;;
75423;SDS011;64005;55.160;36.002;2023-01-24T14:31:01;9.40;;;3.25;;
75423;SDS011;64005;55.160;36.002;2023-01-24T14:33:40;12.23;;;4.35;;
75423;SDS011;64005;55.160;36.002;2023-01-24T14:36:23;10.57;;;3.65;;
75423;SDS011;64005;55.160;36.002;2023-01-24T14:39:14;10.00;;;3.17;;
75423;SDS011;64005;55.160;36.002;2023-01-24T14:44:17;6.50;;;2.58;;
75423;SDS011;64005;55.160;36.002;2023-01-24T14:46:52;9.77;;;3.55;;
75423;SDS011;64005;55.160;36.002;2023-01-24T14:49:25;8.40;;;3.22;;
75423;SDS011;64005;55.160;36.002;2023-01-24T14:51:55;8.07;;;3.53;;
75423;SDS011;64005;55.160;36.002;2023-01-24T14:54:23;9.63;;;3.35;;
75423;SDS011;64005;55.160;36.002;2023-01-24T14:56:51;7.35;;;2.78;;
75423;SDS011;64005;55.160;36.002;2023-01-24T14:59:20;6.72;;;2.67;;
75423;SDS011;64005;55.160;36.002;2023-01-24T15:01:50;10.68;;;3.10;;
75423;SDS011;64005;55.160;36.002;2023-01-24T15:04:22;9.27;;;3.33;;
75423;SDS011;64005;55.160;36.002;2023-01-24T15:07:04;8.70;;;3.47;;
75423;SDS011;64005;55.160;36.002;2023-01-24T15:09:33;7.80;;;2.47;;
75423;SDS011;64005;55.160;36.002;2023-01-24T15:12:11;6.40;;;2.65;;
75423;SDS011;64005;55.160;36.002;2023-01-24T15:14:41;11.48;;;3.42;;
75423;SDS011;64005;55.160;36.002;2023-01-24T15:17:14;7.13;;;3.03;;
75423;SDS011;64005;55.160;36.002;2023-01-24T15:19:47;10.82;;;3.35;;
75423;SDS011;64005;55.160;36.002;2023-01-24T15:22:18;8.85;;;3.28;;
75423;SDS011;64005;55.160;36.002;2023-01-24T15:24:49;8.02;;;2.70;;
75423;SDS011;64005;55.160;36.002;2023-01-24T15:27:23;8.48;;;3.00;;